Time;durP1;ratioP1;P1;durP2;ratioP2;P2;SDS_P1;SDS_P2;PMS_P1;PMS_P2;Temp;Humidity;BMP_temperature;BMP_pressure;BME280_temperature;BME280_humidity;BME280_pressure;Samples;Min_cycle;Max_cycle;Signal;HPM_P1;HPM_P2
2023/12/20 00:00:54;;;;;;;;;;;;;;;;;;5135334;28;946;-57
2023/12/20 00:03:19;;;;;;;;;;;;;;;;;;5134617;28;999;-57
2023/12/20 00:05:44;;;;;;;;;;;;;;;;;;5134477;27;966;-58
2023/12/20 00:08:09;;;;;;;;;;;;;;;;;;5134854;28;938;-58
2023/12/20 00:10:35;;;;;;;;;;;;;;;;;;5116061;28;1467;-58
2023/12/20 00:13:00;;;;;;;;;;;;;;;;;;5134758;27;1901;-58
2023/12/20 00:15:25;;;;;;;;;;;;;;;;;;5134480;27;883;-58
2023/12/20 00:17:50;;;;;;;;;;;;;;;;;;5115881;28;923;-58
2023/12/20 00:20:16;;;;;;;;;;;;;;;;;;5134208;27;1039;-58
2023/12/20 00:22:41;;;;;;;;;;;;;;;;;;5133735;28;895;-58
2023/12/20 00:25:07;;;;;;;;;;;;;;;;;;5134961;27;898;-59
2023/12/20 00:27:32;;;;;;;;;;;;;;;;;;5136510;27;867;-59
2023/12/20 00:29:57;;;;;;;;;;;;;;;;;;5136538;27;896;-58
2023/12/20 00:32:22;;;;;;;;;;;;;;;;;;5136462;27;1948;-58
2023/12/20 00:34:47;;;;;;;;;;;;;;;;;;5137488;27;1018;-60
2023/12/20 00:37:13;;;;;;;;;;;;;;;;;;5137024;27;1001;-61
2023/12/20 00:39:38;;;;;;;;;;;;;;;;;;5138022;27;880;-61
2023/12/20 00:42:03;;;;;;;;;;;;;;;;;;5138187;27;1069;-62
2023/12/20 00:44:29;;;;;;;;;;;;;;;;;;5138079;27;987;-60
2023/12/20 00:46:54;;;;;;;;;;;;;;;;;;5119526;27;1319;-61
2023/12/20 00:49:19;;;;;;;;;;;;;;;;;;5138569;27;820;-60
2023/12/20 00:51:44;;;;;;;;;;;;;;;;;;5138658;27;1982;-60
2023/12/20 00:54:10;;;;;;;;;;;;;;;;;;5138759;27;872;-60
2023/12/20 00:56:35;;;;;;;;;;;;;;;;;;5119153;27;1005;-61
2023/12/20 00:59:00;;;;;;;;;;;;;;;;;;5137669;27;982;-61
2023/12/20 01:01:26;;;;;;;;;;;;;;;;;;5137877;27;856;-60
2023/12/20 01:03:51;;;;;;;;;;;;;;;;;;5138033;27;900;-60
2023/12/20 01:06:16;;;;;;;;;;;;;;;;;;5137405;27;817;-60
2023/12/20 01:08:42;;;;;;;;;;;;;;;;;;5137940;27;974;-61
2023/12/20 01:11:07;;;;;;;;;;;;;;;;;;5137717;27;994;-61
2023/12/20 01:13:32;;;;;;;;;;;;;;;;;;5137575;27;1914;-60
2023/12/20 01:15:58;;;;;;;;;;;;;;;;;;5119505;27;820;-61
2023/12/20 01:18:23;;;;;;;;;;;;;;;;;;5137476;27;875;-61
2023/12/20 01:20:48;;;;;;;;;;;;;;;;;;5137667;27;1045;-61
2023/12/20 01:23:13;;;;;;;;;;;;;;;;;;5137590;27;907;-61
2023/12/20 01:25:39;;;;;;;;;;;;;;;;;;5137220;27;1057;-61
2023/12/20 01:28:04;;;;;;;;;;;;;;;;;;5137221;27;860;-61
2023/12/20 01:30:30;;;;;;;;;;;;;;;;;;5137140;27;974;-61
2023/12/20 01:32:55;;;;;;;;;;;;;;;;;;5137100;27;1987;-61
2023/12/20 01:35:20;;;;;;;;;;;;;;;;;;5136306;27;876;-61
2023/12/20 01:37:45;;;;;;;;;;;;;;;;;;5137403;27;836;-61
2023/12/20 01:40:11;;;;;;;;;;;;;;;;;;5136730;27;769;-61
2023/12/20 01:42:36;;;;;;;;;;;;;;;;;;5137175;27;840;-61
2023/12/20 01:45:02;;;;;;;;;;;;;;;;;;5137125;27;923;-61
2023/12/20 01:47:27;;;;;;;;;;;;;;;;;;5137510;27;840;-59
2023/12/20 01:49:53;;;;;;;;;;;;;;;;;;5136909;27;812;-60
2023/12/20 01:52:18;;;;;;;;;;;;;;;;;;5137425;27;1896;-61
2023/12/20 01:54:44;;;;;;;;;;;;;;;;;;5136640;27;950;-61
2023/12/20 01:57:09;;;;;;;;;;;;;;;;;;5137044;27;875;-61
2023/12/20 01:59:35;;;;;;;;;;;;;;;;;;5137150;27;926;-61
2023/12/20 02:02:00;;;;;;;;;;;;;;;;;;5136704;27;962;-61
2023/12/20 02:04:26;;;;;;;;;;;;;;;;;;5137123;27;1022;-61
2023/12/20 02:06:52;;;;;;;;;;;;;;;;;;5136184;27;974;-61
2023/12/20 02:09:18;;;;;;;;;;;;;;;;;;5136771;27;863;-61
2023/12/20 02:11:43;;;;;;;;;;;;;;;;;;5116728;27;1247;-61
2023/12/20 02:14:08;;;;;;;;;;;;;;;;;;5132877;27;1878;-61
2023/12/20 02:16:34;;;;;;;;;;;;;;;;;;5133448;27;1160;-61
2023/12/20 02:18:59;;;;;;;;;;;;;;;;;;5132898;27;1151;-62
2023/12/20 02:21:25;;;;;;;;;;;;;;;;;;5132855;27;1230;-61
2023/12/20 02:23:50;;;;;;;;;;;;;;;;;;5131764;27;1219;-61
2023/12/20 02:26:16;;;;;;;;;;;;;;;;;;5132324;27;1387;-61
2023/12/20 02:28:41;;;;;;;;;;;;;;;;;;5132725;27;1219;-61
2023/12/20 02:31:07;;;;;;;;;;;;;;;;;;5132637;27;1282;-61
2023/12/20 02:33:32;;;;;;;;;;;;;;;;;;5132665;27;1941;-61
2023/12/20 02:35:57;;;;;;;;;;;;;;;;;;5130033;27;1133;-62
2023/12/20 02:38:23;;;;;;;;;;;;;;;;;;5113605;27;1490;-62
2023/12/20 02:40:48;;;;;;;;;;;;;;;;;;5094743;27;1499;-60
2023/12/20 02:43:13;;;;;;;;;;;;;;;;;;5116714;27;1275;-60
2023/12/20 02:45:38;;;;;;;;;;;;;;;;;;5135795;27;1010;-61
2023/12/20 02:48:04;;;;;;;;;;;;;;;;;;5135273;27;856;-60
2023/12/20 02:50:29;;;;;;;;;;;;;;;;;;5100457;27;923;-60
2023/12/20 02:52:54;;;;;;;;;;;;;;;;;;5135751;27;1965;-60
2023/12/20 02:55:20;;;;;;;;;;;;;;;;;;5117666;27;900;-60
2023/12/20 02:57:45;;;;;;;;;;;;;;;;;;5135574;27;855;-61
2023/12/20 03:00:10;;;;;;;;;;;;;;;;;;5117219;27;1062;-60
2023/12/20 03:02:36;;;;;;;;;;;;;;;;;;5135865;27;891;-61
2023/12/20 03:05:01;;;;;;;;;;;;;;;;;;5136131;27;836;-61
2023/12/20 03:07:27;;;;;;;;;;;;;;;;;;5135457;27;829;-58
2023/12/20 03:09:52;;;;;;;;;;;;;;;;;;5135166;27;1011;-57
2023/12/20 03:12:17;;;;;;;;;;;;;;;;;;5116619;27;1902;-57
2023/12/20 03:14:43;;;;;;;;;;;;;;;;;;5134966;27;797;-58
2023/12/20 03:17:08;;;;;;;;;;;;;;;;;;5135365;27;999;-58
2023/12/20 03:19:34;;;;;;;;;;;;;;;;;;5134956;27;645;-58
2023/12/20 03:22:00;;;;;;;;;;;;;;;;;;5116645;27;1160;-58
2023/12/20 03:24:26;;;;;;;;;;;;;;;;;;5117029;27;845;-59
2023/12/20 03:26:51;;;;;;;;;;;;;;;;;;5134828;27;1041;-58
2023/12/20 03:29:16;;;;;;;;;;;;;;;;;;5135225;27;875;-59
2023/12/20 03:31:41;;;;;;;;;;;;;;;;;;5135663;27;843;-58
2023/12/20 03:34:07;;;;;;;;;;;;;;;;;;5135401;27;1906;-58
2023/12/20 03:36:32;;;;;;;;;;;;;;;;;;5116301;27;911;-58
2023/12/20 03:38:57;;;;;;;;;;;;;;;;;;5116503;27;856;-57
2023/12/20 03:41:22;;;;;;;;;;;;;;;;;;5134816;27;923;-58
2023/12/20 03:43:48;;;;;;;;;;;;;;;;;;5099576;28;875;-57
2023/12/20 03:46:13;;;;;;;;;;;;;;;;;;5134111;27;876;-59
2023/12/20 03:48:38;;;;;;;;;;;;;;;;;;5135404;27;800;-58
2023/12/20 03:51:04;;;;;;;;;;;;;;;;;;5133298;27;1234;-58
2023/12/20 03:53:29;;;;;;;;;;;;;;;;;;5129549;28;1894;-58
2023/12/20 03:55:54;;;;;;;;;;;;;;;;;;5129460;28;1128;-58
2023/12/20 03:58:19;;;;;;;;;;;;;;;;;;5130579;27;1226;-58
2023/12/20 04:00:45;;;;;;;;;;;;;;;;;;5134305;27;1143;-58
2023/12/20 04:03:13;;;;;;;;;;;;;;;;;;5136133;27;1254;-57
2023/12/20 04:05:38;;;;;;;;;;;;;;;;;;5135250;27;1234;-57
2023/12/20 04:08:04;;;;;;;;;;;;;;;;;;5135830;27;1187;-57
2023/12/20 04:10:29;;;;;;;;;;;;;;;;;;5116622;27;1214;-57
2023/12/20 04:12:55;;;;;;;;;;;;;;;;;;5119696;27;1974;-58
2023/12/20 04:15:20;;;;;;;;;;;;;;;;;;5120156;27;796;-58
2023/12/20 04:17:45;;;;;;;;;;;;;;;;;;5138781;27;958;-58
2023/12/20 04:20:10;;;;;;;;;;;;;;;;;;5138346;27;939;-58
2023/12/20 04:22:36;;;;;;;;;;;;;;;;;;5120481;27;1077;-58
2023/12/20 04:25:02;;;;;;;;;;;;;;;;;;5120044;27;840;-58
2023/12/20 04:27:27;;;;;;;;;;;;;;;;;;5138807;27;883;-58
2023/12/20 04:29:52;;;;;;;;;;;;;;;;;;5138363;27;985;-58
2023/12/20 04:32:17;;;;;;;;;;;;;;;;;;5138517;27;1963;-59
2023/12/20 04:34:43;;;;;;;;;;;;;;;;;;5138714;27;808;-58
2023/12/20 04:37:08;;;;;;;;;;;;;;;;;;5138550;27;995;-62
2023/12/20 04:39:33;;;;;;;;;;;;;;;;;;5138669;27;1002;-58
2023/12/20 04:41:58;;;;;;;;;;;;;;;;;;5138809;27;840;-58
2023/12/20 04:44:24;;;;;;;;;;;;;;;;;;5138178;27;992;-58
2023/12/20 04:46:49;;;;;;;;;;;;;;;;;;5137811;27;922;-58
2023/12/20 04:49:14;;;;;;;;;;;;;;;;;;5138099;27;908;-58
2023/12/20 04:51:39;;;;;;;;;;;;;;;;;;5138315;27;876;-59
2023/12/20 04:54:05;;;;;;;;;;;;;;;;;;5138116;27;1905;-58
2023/12/20 04:56:30;;;;;;;;;;;;;;;;;;5138416;27;892;-58
2023/12/20 04:58:55;;;;;;;;;;;;;;;;;;5137869;27;1059;-58
2023/12/20 05:01:21;;;;;;;;;;;;;;;;;;5137032;27;1231;-58
2023/12/20 05:03:46;;;;;;;;;;;;;;;;;;5133369;27;1116;-59
2023/12/20 05:06:11;;;;;;;;;;;;;;;;;;5133052;27;1159;-59
2023/12/20 05:08:37;;;;;;;;;;;;;;;;;;5113837;27;1127;-59
2023/12/20 05:11:03;;;;;;;;;;;;;;;;;;5131834;27;1152;-58
2023/12/20 05:13:28;;;;;;;;;;;;;;;;;;5132010;27;1906;-58
2023/12/20 05:15:53;;;;;;;;;;;;;;;;;;5131837;27;1100;-57
2023/12/20 05:18:20;;;;;;;;;;;;;;;;;;5132532;27;1151;-57
2023/12/20 05:20:46;;;;;;;;;;;;;;;;;;5134609;27;1159;-58
2023/12/20 05:23:11;;;;;;;;;;;;;;;;;;5134321;27;1127;-58
2023/12/20 05:25:36;;;;;;;;;;;;;;;;;;5133134;27;1144;-57
2023/12/20 05:28:02;;;;;;;;;;;;;;;;;;5115078;27;1104;-57
2023/12/20 05:30:27;;;;;;;;;;;;;;;;;;5133805;27;1260;-58
2023/12/20 05:32:52;;;;;;;;;;;;;;;;;;5133267;27;1972;-59
2023/12/20 05:35:17;;;;;;;;;;;;;;;;;;5133498;27;1218;-59
2023/12/20 05:37:43;;;;;;;;;;;;;;;;;;5136258;27;1218;-59
2023/12/20 05:40:11;;;;;;;;;;;;;;;;;;5137342;27;994;-58
2023/12/20 05:42:37;;;;;;;;;;;;;;;;;;5137645;27;871;-58
2023/12/20 05:45:03;;;;;;;;;;;;;;;;;;5137526;27;828;-57
2023/12/20 05:47:28;;;;;;;;;;;;;;;;;;5137081;27;839;-57
2023/12/20 05:49:53;;;;;;;;;;;;;;;;;;5118420;27;1219;-57
2023/12/20 05:52:19;;;;;;;;;;;;;;;;;;5118181;27;1897;-57
2023/12/20 05:54:44;;;;;;;;;;;;;;;;;;5137290;27;815;-58
2023/12/20 05:57:09;;;;;;;;;;;;;;;;;;5136668;27;820;-58
2023/12/20 05:59:34;;;;;;;;;;;;;;;;;;5136359;27;856;-59
2023/12/20 06:02:00;;;;;;;;;;;;;;;;;;5118245;27;1221;-59
2023/12/20 06:04:25;;;;;;;;;;;;;;;;;;5136816;27;867;-58
2023/12/20 06:06:50;;;;;;;;;;;;;;;;;;5136379;27;954;-59
2023/12/20 06:09:15;;;;;;;;;;;;;;;;;;5116310;27;1369;-57
2023/12/20 06:11:41;;;;;;;;;;;;;;;;;;5132894;27;1219;-59
2023/12/20 06:14:06;;;;;;;;;;;;;;;;;;5136447;27;1918;-58
2023/12/20 06:16:31;;;;;;;;;;;;;;;;;;5136037;27;899;-58
2023/12/20 06:18:57;;;;;;;;;;;;;;;;;;5136021;27;857;-58
2023/12/20 06:21:22;;;;;;;;;;;;;;;;;;5135477;27;918;-58
2023/12/20 06:23:47;;;;;;;;;;;;;;;;;;5135297;27;911;-59
2023/12/20 06:26:12;;;;;;;;;;;;;;;;;;5100302;27;812;-58
2023/12/20 06:28:38;;;;;;;;;;;;;;;;;;5136476;27;836;-58
2023/12/20 06:31:03;;;;;;;;;;;;;;;;;;5117390;27;1258;-58
2023/12/20 06:33:30;;;;;;;;;;;;;;;;;;5118218;27;1907;-58
2023/12/20 06:35:56;;;;;;;;;;;;;;;;;;5135953;27;875;-58
2023/12/20 06:38:21;;;;;;;;;;;;;;;;;;5135684;27;987;-57
2023/12/20 06:40:46;;;;;;;;;;;;;;;;;;5136068;27;840;-59
2023/12/20 06:43:13;;;;;;;;;;;;;;;;;;5135854;27;899;-58
2023/12/20 06:45:38;;;;;;;;;;;;;;;;;;5117731;27;1663;-58
2023/12/20 06:48:03;;;;;;;;;;;;;;;;;;5135529;27;769;-58
2023/12/20 06:50:29;;;;;;;;;;;;;;;;;;5135579;27;935;-58
2023/12/20 06:52:54;;;;;;;;;;;;;;;;;;5135512;27;1882;-58
2023/12/20 06:55:19;;;;;;;;;;;;;;;;;;5134723;27;888;-58
2023/12/20 06:57:44;;;;;;;;;;;;;;;;;;5135436;27;935;-58
2023/12/20 07:00:11;;;;;;;;;;;;;;;;;;5135225;27;1034;-57
2023/12/20 07:02:36;;;;;;;;;;;;;;;;;;5135238;27;1176;-58
2023/12/20 07:05:01;;;;;;;;;;;;;;;;;;5130172;27;1152;-58
2023/12/20 07:07:26;;;;;;;;;;;;;;;;;;5129828;27;1170;-58
2023/12/20 07:09:52;;;;;;;;;;;;;;;;;;5129666;28;1203;-58
2023/12/20 07:12:19;;;;;;;;;;;;;;;;;;5128773;28;1913;-58
2023/12/20 07:14:44;;;;;;;;;;;;;;;;;;5131801;28;1034;-58
2023/12/20 07:17:11;;;;;;;;;;;;;;;;;;5133390;28;863;-58
2023/12/20 07:19:37;;;;;;;;;;;;;;;;;;5134258;28;1026;-59
2023/12/20 07:22:02;;;;;;;;;;;;;;;;;;5134125;28;990;-58
2023/12/20 07:24:28;;;;;;;;;;;;;;;;;;5134501;28;920;-58
2023/12/20 07:26:53;;;;;;;;;;;;;;;;;;5134267;28;906;-58
2023/12/20 07:29:18;;;;;;;;;;;;;;;;;;5133990;28;999;-59
2023/12/20 07:31:43;;;;;;;;;;;;;;;;;;5131620;28;855;-57
2023/12/20 07:34:08;;;;;;;;;;;;;;;;;;5134227;27;1906;-57
2023/12/20 07:36:34;;;;;;;;;;;;;;;;;;5133757;28;977;-58
2023/12/20 07:38:59;;;;;;;;;;;;;;;;;;5134597;28;820;-58
2023/12/20 07:41:24;;;;;;;;;;;;;;;;;;5134242;28;879;-58
2023/12/20 07:43:50;;;;;;;;;;;;;;;;;;5133976;28;958;-57
2023/12/20 07:46:15;;;;;;;;;;;;;;;;;;5134437;28;1042;-58
2023/12/20 07:48:41;;;;;;;;;;;;;;;;;;5134556;28;899;-59
2023/12/20 07:51:08;;;;;;;;;;;;;;;;;;5134305;28;876;-58
2023/12/20 07:53:33;;;;;;;;;;;;;;;;;;5133756;28;1962;-59
2023/12/20 07:55:59;;;;;;;;;;;;;;;;;;5115652;28;1224;-59
2023/12/20 07:58:24;;;;;;;;;;;;;;;;;;5134143;28;827;-58
2023/12/20 08:00:49;;;;;;;;;;;;;;;;;;5132912;28;1191;-58
2023/12/20 08:03:14;;;;;;;;;;;;;;;;;;5129739;27;1103;-59
2023/12/20 08:05:40;;;;;;;;;;;;;;;;;;5082770;27;1329486;-58
2023/12/20 08:08:06;;;;;;;;;;;;;;;;;;5130301;28;1294;-59
2023/12/20 08:10:31;;;;;;;;;;;;;;;;;;5129833;27;1131;-59
2023/12/20 08:12:56;;;;;;;;;;;;;;;;;;5131464;28;1984;-59
2023/12/20 08:15:21;;;;;;;;;;;;;;;;;;5114403;28;880;-59
2023/12/20 08:17:47;;;;;;;;;;;;;;;;;;5132599;28;1125;-58
2023/12/20 08:20:12;;;;;;;;;;;;;;;;;;5132790;28;887;-59
2023/12/20 08:22:38;;;;;;;;;;;;;;;;;;5135062;28;986;-58
2023/12/20 08:25:03;;;;;;;;;;;;;;;;;;5135491;28;847;-58
2023/12/20 08:27:28;;;;;;;;;;;;;;;;;;5134852;28;993;-58
2023/12/20 08:29:54;;;;;;;;;;;;;;;;;;5134505;28;892;-58
2023/12/20 08:32:19;;;;;;;;;;;;;;;;;;5134312;28;1944;-59
2023/12/20 08:34:44;;;;;;;;;;;;;;;;;;5134442;28;875;-58
2023/12/20 08:37:09;;;;;;;;;;;;;;;;;;5134668;28;963;-58
2023/12/20 08:39:35;;;;;;;;;;;;;;;;;;5134539;28;911;-58
2023/12/20 08:42:00;;;;;;;;;;;;;;;;;;5134219;28;907;-58
2023/12/20 08:44:25;;;;;;;;;;;;;;;;;;5133724;27;836;-57
2023/12/20 08:46:51;;;;;;;;;;;;;;;;;;5137581;27;844;-57
2023/12/20 08:49:17;;;;;;;;;;;;;;;;;;5138045;27;928;-58
2023/12/20 08:51:42;;;;;;;;;;;;;;;;;;5137082;27;1215;-56
2023/12/20 08:54:07;;;;;;;;;;;;;;;;;;5138027;27;1905;-57
2023/12/20 08:56:33;;;;;;;;;;;;;;;;;;5137731;27;887;-58
2023/12/20 08:58:59;;;;;;;;;;;;;;;;;;5138001;27;910;-60
2023/12/20 09:01:24;;;;;;;;;;;;;;;;;;5137752;27;1260;-60
2023/12/20 09:03:49;;;;;;;;;;;;;;;;;;5119549;27;929;-60
2023/12/20 09:06:15;;;;;;;;;;;;;;;;;;5135242;27;1147;-60
2023/12/20 09:08:40;;;;;;;;;;;;;;;;;;5132691;27;1156;-60
2023/12/20 09:11:06;;;;;;;;;;;;;;;;;;5133096;27;1155;-60
2023/12/20 09:13:32;;;;;;;;;;;;;;;;;;5134617;27;2005;-61
2023/12/20 09:15:57;;;;;;;;;;;;;;;;;;5136057;27;800;-60
2023/12/20 09:18:22;;;;;;;;;;;;;;;;;;5117106;27;2378;-61
2023/12/20 09:20:48;;;;;;;;;;;;;;;;;;5135339;27;1005;-60
2023/12/20 09:23:13;;;;;;;;;;;;;;;;;;5137169;27;793;-60
2023/12/20 09:25:38;;;;;;;;;;;;;;;;;;5137637;27;884;-60
2023/12/20 09:28:03;;;;;;;;;;;;;;;;;;5137734;27;840;-60
2023/12/20 09:30:29;;;;;;;;;;;;;;;;;;5137370;27;852;-60
2023/12/20 09:32:54;;;;;;;;;;;;;;;;;;5137097;27;1948;-60
2023/12/20 09:35:20;;;;;;;;;;;;;;;;;;5136877;27;852;-60
2023/12/20 09:37:46;;;;;;;;;;;;;;;;;;5137019;27;907;-60
2023/12/20 09:40:13;;;;;;;;;;;;;;;;;;5137306;27;800;-60
2023/12/20 09:42:58;;;;;;;;;;;;;;;;;;5136667;27;891;-60
2023/12/20 09:45:24;;;;;;;;;;;;;;;;;;5135911;27;2047;-60
2023/12/20 09:47:53;;;;;;;;;;;;;;;;;;5137157;27;604;-60
2023/12/20 09:50:20;;;;;;;;;;;;;;;;;;5118352;27;797;-60
2023/12/20 09:52:46;;;;;;;;;;;;;;;;;;5136342;27;1901;-60
2023/12/20 09:55:11;;;;;;;;;;;;;;;;;;5137175;27;812;-60
2023/12/20 09:57:37;;;;;;;;;;;;;;;;;;5136786;27;958;-60
2023/12/20 10:00:03;;;;;;;;;;;;;;;;;;5136761;27;1002;-60
2023/12/20 10:02:29;;;;;;;;;;;;;;;;;;5118110;27;852;-60
2023/12/20 10:04:55;;;;;;;;;;;;;;;;;;5136961;27;820;-60
2023/12/20 10:07:22;;;;;;;;;;;;;;;;;;5134043;27;1241;-60
2023/12/20 10:09:47;;;;;;;;;;;;;;;;;;5131983;27;1131;-60
2023/12/20 10:12:12;;;;;;;;;;;;;;;;;;5132320;27;1910;-60
2023/12/20 10:14:38;;;;;;;;;;;;;;;;;;5135276;27;867;-60
2023/12/20 10:17:04;;;;;;;;;;;;;;;;;;5134759;27;1030;-60
2023/12/20 10:19:29;;;;;;;;;;;;;;;;;;5134552;27;785;-60
2023/12/20 10:21:54;;;;;;;;;;;;;;;;;;5134786;27;936;-60
2023/12/20 10:24:20;;;;;;;;;;;;;;;;;;5136224;27;821;-60
2023/12/20 10:26:45;;;;;;;;;;;;;;;;;;5136648;27;805;-60
2023/12/20 10:29:11;;;;;;;;;;;;;;;;;;5136237;27;1219;-60
2023/12/20 10:31:38;;;;;;;;;;;;;;;;;;5135867;27;923;-60
2023/12/20 10:34:04;;;;;;;;;;;;;;;;;;5116995;27;1863;-60
2023/12/20 10:36:30;;;;;;;;;;;;;;;;;;5132825;27;1155;-60
2023/12/20 10:38:57;;;;;;;;;;;;;;;;;;5132538;27;1163;-60
2023/12/20 10:41:27;;;;;;;;;;;;;;;;;;5132210;27;1052;-59
2023/12/20 10:43:53;;;;;;;;;;;;;;;;;;5134940;27;1143;-60
2023/12/20 10:46:19;;;;;;;;;;;;;;;;;;5135707;27;824;-61
2023/12/20 10:48:45;;;;;;;;;;;;;;;;;;5135938;27;836;-60
2023/12/20 10:51:11;;;;;;;;;;;;;;;;;;5136691;27;844;-60
2023/12/20 10:53:36;;;;;;;;;;;;;;;;;;5135748;27;1905;-60
2023/12/20 10:56:02;;;;;;;;;;;;;;;;;;5136214;27;809;-61
2023/12/20 10:58:29;;;;;;;;;;;;;;;;;;5136034;27;839;-60
2023/12/20 11:00:59;;;;;;;;;;;;;;;;;;5135861;27;977;-60
2023/12/20 11:03:26;;;;;;;;;;;;;;;;;;5117673;27;756;-61
2023/12/20 11:06:02;;;;;;;;;;;;;;;;;;5117662;27;919;-60
2023/12/20 11:08:34;;;;;;;;;;;;;;;;;;5131962;27;1178;-60
2023/12/20 11:11:25;;;;;;;;;;;;;;;;;;5129905;27;1215;-61
2023/12/20 11:13:57;;;;;;;;;;;;;;;;;;5125840;27;1905;-61
2023/12/20 11:16:22;;;;;;;;;;;;;;;;;;5113053;27;1238;-60
2023/12/20 11:18:47;;;;;;;;;;;;;;;;;;5129185;27;1184;-61
2023/12/20 11:21:14;;;;;;;;;;;;;;;;;;5129621;27;1152;-59
2023/12/20 11:23:42;;;;;;;;;;;;;;;;;;5128360;27;1226;-59
2023/12/20 11:26:07;;;;;;;;;;;;;;;;;;5129582;27;1096;-59
2023/12/20 11:28:33;;;;;;;;;;;;;;;;;;5129628;27;1107;-60
2023/12/20 11:31:01;;;;;;;;;;;;;;;;;;5129197;27;1183;-60
2023/12/20 11:33:31;;;;;;;;;;;;;;;;;;5110948;27;2386;-59
2023/12/20 11:35:56;;;;;;;;;;;;;;;;;;5129663;27;1168;-60
2023/12/20 11:38:22;;;;;;;;;;;;;;;;;;5112918;27;1164;-60
2023/12/20 11:40:50;;;;;;;;;;;;;;;;;;5132184;27;1223;-60
2023/12/20 11:43:32;;;;;;;;;;;;;;;;;;5133475;27;1214;-60
2023/12/20 11:46:02;;;;;;;;;;;;;;;;;;5134537;27;765;-60
2023/12/20 11:48:28;;;;;;;;;;;;;;;;;;5132417;27;1428;-61
2023/12/20 11:50:53;;;;;;;;;;;;;;;;;;5134599;27;848;-60
2023/12/20 11:53:20;;;;;;;;;;;;;;;;;;5134650;27;1897;-60
2023/12/20 11:55:47;;;;;;;;;;;;;;;;;;5134604;27;903;-60
2023/12/20 11:58:13;;;;;;;;;;;;;;;;;;5135030;28;844;-60
2023/12/20 12:00:38;;;;;;;;;;;;;;;;;;5116017;28;840;-60
2023/12/20 12:03:03;;;;;;;;;;;;;;;;;;5133660;28;1222;-61
2023/12/20 12:05:30;;;;;;;;;;;;;;;;;;5129750;27;1119;-61
2023/12/20 12:07:55;;;;;;;;;;;;;;;;;;5129832;28;1175;-61
2023/12/20 12:10:21;;;;;;;;;;;;;;;;;;5129153;28;1179;-61
2023/12/20 12:12:47;;;;;;;;;;;;;;;;;;5128648;28;1901;-61
2023/12/20 12:15:12;;;;;;;;;;;;;;;;;;5110460;28;1168;-60
2023/12/20 12:17:38;;;;;;;;;;;;;;;;;;5110364;28;1226;-60
2023/12/20 12:20:04;;;;;;;;;;;;;;;;;;5129687;27;1192;-61
2023/12/20 12:22:30;;;;;;;;;;;;;;;;;;5137907;27;801;-60
2023/12/20 12:24:58;;;;;;;;;;;;;;;;;;5138057;27;871;-61
2023/12/20 12:27:24;;;;;;;;;;;;;;;;;;5119005;27;1408;-61
2023/12/20 12:30:03;;;;;;;;;;;;;;;;;;5137215;27;876;-60
2023/12/20 12:32:29;;;;;;;;;;;;;;;;;;5137072;27;1956;-60
2023/12/20 12:34:54;;;;;;;;;;;;;;;;;;5137200;27;864;-60
2023/12/20 12:37:19;;;;;;;;;;;;;;;;;;5119054;27;860;-61
2023/12/20 12:39:46;;;;;;;;;;;;;;;;;;5119164;27;1078;-61
2023/12/20 12:42:11;;;;;;;;;;;;;;;;;;5138561;27;1002;-61
2023/12/20 12:44:37;;;;;;;;;;;;;;;;;;5138262;27;884;-61
2023/12/20 12:47:03;;;;;;;;;;;;;;;;;;5137488;27;908;-60
2023/12/20 12:49:28;;;;;;;;;;;;;;;;;;5138060;27;911;-60
2023/12/20 12:51:56;;;;;;;;;;;;;;;;;;5138200;27;855;-60
2023/12/20 12:54:21;;;;;;;;;;;;;;;;;;5137896;27;1894;-61
2023/12/20 12:56:47;;;;;;;;;;;;;;;;;;5138128;27;927;-60
2023/12/20 12:59:13;;;;;;;;;;;;;;;;;;5119579;27;1421;-60
2023/12/20 13:01:38;;;;;;;;;;;;;;;;;;5138021;27;1000;-60
2023/12/20 13:04:06;;;;;;;;;;;;;;;;;;5137648;27;899;-60
2023/12/20 13:06:32;;;;;;;;;;;;;;;;;;5119170;27;946;-59
2023/12/20 13:08:57;;;;;;;;;;;;;;;;;;5137159;27;812;-60
2023/12/20 13:11:22;;;;;;;;;;;;;;;;;;5136130;27;903;-60
2023/12/20 13:13:47;;;;;;;;;;;;;;;;;;5119392;27;1901;-59
2023/12/20 13:16:13;;;;;;;;;;;;;;;;;;5137318;27;796;-60
2023/12/20 13:18:42;;;;;;;;;;;;;;;;;;5119360;27;856;-60
2023/12/20 13:21:07;;;;;;;;;;;;;;;;;;5138031;27;1011;-59
2023/12/20 13:23:33;;;;;;;;;;;;;;;;;;5137254;27;1045;-60
2023/12/20 13:25:58;;;;;;;;;;;;;;;;;;5119068;27;1195;-58
2023/12/20 13:28:23;;;;;;;;;;;;;;;;;;5137400;27;1010;-57
2023/12/20 13:30:48;;;;;;;;;;;;;;;;;;5136496;27;887;-58
2023/12/20 13:33:14;;;;;;;;;;;;;;;;;;5118690;27;1906;-58
2023/12/20 13:35:39;;;;;;;;;;;;;;;;;;5118930;27;907;-59
2023/12/20 13:38:04;;;;;;;;;;;;;;;;;;5119307;27;959;-59
2023/12/20 13:40:30;;;;;;;;;;;;;;;;;;5137250;27;899;-60
2023/12/20 13:42:55;;;;;;;;;;;;;;;;;;5137131;27;820;-60
2023/12/20 13:45:21;;;;;;;;;;;;;;;;;;5136963;27;840;-60
2023/12/20 13:47:46;;;;;;;;;;;;;;;;;;5136756;27;911;-60
2023/12/20 13:50:11;;;;;;;;;;;;;;;;;;5137061;27;1057;-60
2023/12/20 13:52:36;;;;;;;;;;;;;;;;;;5136742;27;1979;-60
2023/12/20 13:55:02;;;;;;;;;;;;;;;;;;5136713;27;823;-59
2023/12/20 13:57:29;;;;;;;;;;;;;;;;;;5136393;27;967;-60
2023/12/20 13:59:56;;;;;;;;;;;;;;;;;;5136552;27;863;-59
2023/12/20 14:02:22;;;;;;;;;;;;;;;;;;5137004;27;848;-60
2023/12/20 14:04:47;;;;;;;;;;;;;;;;;;5118249;27;974;-61
2023/12/20 14:07:12;;;;;;;;;;;;;;;;;;5136700;27;900;-59
2023/12/20 14:09:38;;;;;;;;;;;;;;;;;;5137393;27;832;-59
2023/12/20 14:12:03;;;;;;;;;;;;;;;;;;5135193;27;852;-60
2023/12/20 14:14:29;;;;;;;;;;;;;;;;;;5135947;27;2007;-60
2023/12/20 14:16:55;;;;;;;;;;;;;;;;;;5136494;27;848;-59
2023/12/20 14:19:20;;;;;;;;;;;;;;;;;;5136496;27;828;-60
2023/12/20 14:21:45;;;;;;;;;;;;;;;;;;5136550;27;1040;-60
2023/12/20 14:24:14;;;;;;;;;;;;;;;;;;5136685;27;782;-59
2023/12/20 14:26:40;;;;;;;;;;;;;;;;;;5136604;27;898;-59
2023/12/20 14:29:07;;;;;;;;;;;;;;;;;;5136175;27;895;-60
2023/12/20 14:31:32;;;;;;;;;;;;;;;;;;5136191;27;820;-60
2023/12/20 14:33:58;;;;;;;;;;;;;;;;;;5135927;27;1903;-60
2023/12/20 14:36:23;;;;;;;;;;;;;;;;;;5136446;27;907;-59
2023/12/20 14:38:50;;;;;;;;;;;;;;;;;;5136099;27;872;-60
2023/12/20 14:41:17;;;;;;;;;;;;;;;;;;5136228;27;907;-60
2023/12/20 14:43:42;;;;;;;;;;;;;;;;;;5134931;27;886;-59
2023/12/20 14:46:07;;;;;;;;;;;;;;;;;;5136519;27;871;-60
2023/12/20 14:48:33;;;;;;;;;;;;;;;;;;5136211;27;966;-60
2023/12/20 14:50:59;;;;;;;;;;;;;;;;;;5135505;27;781;-59
2023/12/20 14:53:25;;;;;;;;;;;;;;;;;;5117056;27;1894;-61
2023/12/20 14:55:50;;;;;;;;;;;;;;;;;;5136125;27;672;-60
2023/12/20 14:58:16;;;;;;;;;;;;;;;;;;5117594;27;868;-60
2023/12/20 15:00:42;;;;;;;;;;;;;;;;;;5135768;27;749;-60
2023/12/20 15:03:07;;;;;;;;;;;;;;;;;;5135748;27;891;-60
2023/12/20 15:05:33;;;;;;;;;;;;;;;;;;5135370;27;873;-60
2023/12/20 15:07:58;;;;;;;;;;;;;;;;;;5135567;27;998;-59
2023/12/20 15:10:23;;;;;;;;;;;;;;;;;;5135730;27;937;-59
2023/12/20 15:12:48;;;;;;;;;;;;;;;;;;5134168;27;1956;-60
2023/12/20 15:15:14;;;;;;;;;;;;;;;;;;5114403;27;985;-60
2023/12/20 15:17:39;;;;;;;;;;;;;;;;;;5133621;27;994;-59
2023/12/20 15:20:05;;;;;;;;;;;;;;;;;;5133510;27;900;-59
2023/12/20 15:22:30;;;;;;;;;;;;;;;;;;5133704;27;1014;-60
2023/12/20 15:24:55;;;;;;;;;;;;;;;;;;5133653;27;852;-60
2023/12/20 15:27:21;;;;;;;;;;;;;;;;;;5133763;27;812;-59
2023/12/20 15:29:51;;;;;;;;;;;;;;;;;;5134689;27;950;-63
2023/12/20 15:32:18;;;;;;;;;;;;;;;;;;5134947;27;895;-59
2023/12/20 15:34:44;;;;;;;;;;;;;;;;;;5135035;27;1905;-58
2023/12/20 15:37:09;;;;;;;;;;;;;;;;;;5135014;27;916;-58
2023/12/20 15:39:34;;;;;;;;;;;;;;;;;;5135397;27;934;-59
2023/12/20 15:42:00;;;;;;;;;;;;;;;;;;5135137;27;911;-59
2023/12/20 15:44:25;;;;;;;;;;;;;;;;;;5135006;27;903;-60
2023/12/20 15:46:51;;;;;;;;;;;;;;;;;;5134560;27;982;-60
2023/12/20 15:49:18;;;;;;;;;;;;;;;;;;5135301;27;852;-60
2023/12/20 15:51:43;;;;;;;;;;;;;;;;;;5134619;27;907;-60
2023/12/20 15:54:09;;;;;;;;;;;;;;;;;;5116333;28;1980;-60
2023/12/20 15:56:36;;;;;;;;;;;;;;;;;;5116988;28;900;-60
2023/12/20 15:59:01;;;;;;;;;;;;;;;;;;5116768;28;1516;-61
2023/12/20 16:01:26;;;;;;;;;;;;;;;;;;5135388;28;824;-60
2023/12/20 16:03:52;;;;;;;;;;;;;;;;;;5116705;28;868;-61
2023/12/20 16:06:17;;;;;;;;;;;;;;;;;;5134760;28;1150;-60
2023/12/20 16:08:42;;;;;;;;;;;;;;;;;;5135079;28;883;-60
2023/12/20 16:11:08;;;;;;;;;;;;;;;;;;5135167;28;919;-60
2023/12/20 16:13:33;;;;;;;;;;;;;;;;;;5133451;28;1913;-60
2023/12/20 16:16:01;;;;;;;;;;;;;;;;;;5132797;28;836;-60
2023/12/20 16:18:28;;;;;;;;;;;;;;;;;;5132756;28;844;-60
2023/12/20 16:20:53;;;;;;;;;;;;;;;;;;5133068;28;869;-60
2023/12/20 16:23:18;;;;;;;;;;;;;;;;;;5132850;28;914;-60
2023/12/20 16:25:44;;;;;;;;;;;;;;;;;;5132436;28;950;-59
2023/12/20 16:28:09;;;;;;;;;;;;;;;;;;5114355;28;837;-60
2023/12/20 16:30:34;;;;;;;;;;;;;;;;;;5134905;28;840;-60
2023/12/20 16:33:00;;;;;;;;;;;;;;;;;;5134508;28;1893;-60
2023/12/20 16:35:25;;;;;;;;;;;;;;;;;;5115975;28;1167;-61
2023/12/20 16:37:50;;;;;;;;;;;;;;;;;;5134389;28;1093;-61
2023/12/20 16:40:19;;;;;;;;;;;;;;;;;;5134532;28;903;-59
2023/12/20 16:42:44;;;;;;;;;;;;;;;;;;5134510;28;926;-60
2023/12/20 16:45:09;;;;;;;;;;;;;;;;;;5134480;28;1006;-60
2023/12/20 16:47:34;;;;;;;;;;;;;;;;;;5134482;28;867;-60
2023/12/20 16:50:02;;;;;;;;;;;;;;;;;;5133951;28;915;-60
2023/12/20 16:52:27;;;;;;;;;;;;;;;;;;5134495;28;1897;-60
2023/12/20 16:54:52;;;;;;;;;;;;;;;;;;5134079;28;1014;-60
2023/12/20 16:57:18;;;;;;;;;;;;;;;;;;5134174;28;911;-59
2023/12/20 16:59:43;;;;;;;;;;;;;;;;;;5133749;28;836;-61
2023/12/20 17:02:09;;;;;;;;;;;;;;;;;;5135158;28;634;-59